Time,TemperatureF,DewpointF,PressureIn,WindDirection,WindDirectionDegrees,WindSpeedMPH,WindSpeedGustMPH,Humidity,HourlyPrecipIn,Conditions,Clouds,dailyrainin,SoftwareType,DateUTC
2013-01-06 00:12:00,27.7,24.0,30.17,North,352,1.0,2.0,87,0.00,,,0.00,weatherlink.com 1.10,2013-01-06 05:12:00,
2013-01-06 00:26:00,27.7,24.0,30.16,North,11,0.0,1.0,87,0.00,,,0.00,weatherlink.com 1.10,2013-01-06 05:26:00,
2013-01-06 00:41:00,28.2,25.0,30.16,SSE,160,0.0,2.0,86,0.00,,,0.00,weatherlink.com 1.10,2013-01-06 05:41:00,
2013-01-06 00:56:00,28.4,25.0,30.16,East,85,1.0,1.0,85,0.00,,,0.00,weatherlink.com 1.10,2013-01-06 05:56:00,
2013-01-06 01:11:00,28.5,25.0,30.16,South,190,1.0,1.0,85,0.00,,,0.00,weatherlink.com 1.10,2013-01-06 06:11:00,
2013-01-06 01:26:00,28.8,25.0,30.16,SE,131,0.0,1.0,84,0.00,,,0.00,weatherlink.com 1.10,2013-01-06 06:26:00,
2013-01-06 01:41:00,29.0,25.0,30.15,SE,131,0.0,1.0,84,0.00,,,0.00,weatherlink.com 1.10,2013-01-06 06:41:00,
2013-01-06 01:56:00,28.7,25.0,30.15,SSW,195,0.0,1.0,84,0.00,,,0.00,weatherlink.com 1.10,2013-01-06 06:56:00,
2013-01-06 02:11:00,28.7,24.0,30.15,SE,134,1.0,3.0,82,0.00,,,0.00,weatherlink.com 1.10,2013-01-06 07:11:00,
2013-01-06 02:26:00,-999.0,-99.9,30.14,North,-999,-999.0,-999.0,-999,0.00,,,0.00,weatherlink.com 1.10,2013-01-06 07:26:00,
2013-01-06 02:41:00,-999.0,-99.9,30.14,North,-999,-999.0,-999.0,-999,0.00,,,0.00,weatherlink.com 1.10,2013-01-06 07:41:00,
2013-01-06 02:56:00,-999.0,-99.9,30.13,North,-999,-999.0,-999.0,-999,0.00,,,0.00,weatherlink.com 1.10,2013-01-06 07:56:00,
2013-01-06 03:11:00,-999.0,-99.9,30.12,North,-999,-999.0,-999.0,-999,0.00,,,0.00,weatherlink.com 1.10,2013-01-06 08:11:00,
2013-01-06 03:27:00,-999.0,-99.9,30.12,North,-999,-999.0,-999.0,-999,0.00,,,0.00,weatherlink.com 1.10,2013-01-06 08:27:00,
2013-01-06 03:42:00,-999.0,-99.9,30.11,North,-999,-999.0,-999.0,-999,0.00,,,0.00,weatherlink.com 1.10,2013-01-06 08:42:00,
2013-01-06 03:57:00,-999.0,-99.9,30.09,North,-999,-999.0,-999.0,-999,0.00,,,0.00,weatherlink.com 1.10,2013-01-06 08:57:00,
2013-01-06 04:12:00,-999.0,-99.9,30.09,North,-999,-999.0,-999.0,-999,0.00,,,0.00,weatherlink.com 1.10,2013-01-06 09:12:00,
2013-01-06 04:27:00,-999.0,-99.9,30.08,North,-999,-999.0,-999.0,-999,0.00,,,0.00,weatherlink.com 1.10,2013-01-06 09:27:00,
2013-01-06 04:42:00,-999.0,-99.9,30.08,North,-999,-999.0,-999.0,-999,0.00,,,0.00,weatherlink.com 1.10,2013-01-06 09:42:00,
2013-01-06 04:57:00,-999.0,-99.9,30.07,North,-999,-999.0,-999.0,-999,0.00,,,0.00,weatherlink.com 1.10,2013-01-06 09:57:00,
2013-01-06 05:12:00,-999.0,-99.9,30.07,North,-999,-999.0,-999.0,-999,0.00,,,0.00,weatherlink.com 1.10,2013-01-06 10:12:00,
2013-01-06 05:27:00,-999.0,-99.9,30.07,North,-999,-999.0,-999.0,-999,0.00,,,0.00,weatherlink.com 1.10,2013-01-06 10:27:00,
2013-01-06 05:42:00,-999.0,-99.9,30.07,North,-999,-999.0,-999.0,-999,0.00,,,0.00,weatherlink.com 1.10,2013-01-06 10:42:00,
2013-01-06 05:57:00,-999.0,-99.9,30.07,North,-999,-999.0,-999.0,-999,0.00,,,0.00,weatherlink.com 1.10,2013-01-06 10:57:00,
2013-01-06 06:12:00,-999.0,-99.9,30.06,North,-999,-999.0,-999.0,-999,0.00,,,0.00,weatherlink.com 1.10,2013-01-06 11:12:00,
2013-01-06 06:27:00,-999.0,-99.9,30.07,North,-999,-999.0,-999.0,-999,0.00,,,0.00,weatherlink.com 1.10,2013-01-06 11:27:00,
2013-01-06 06:42:00,-999.0,-99.9,30.07,North,-999,-999.0,-999.0,-999,0.00,,,0.00,weatherlink.com 1.10,2013-01-06 11:42:00,
2013-01-06 06:58:00,-999.0,-99.9,30.06,North,-999,-999.0,-999.0,-999,0.00,,,0.00,weatherlink.com 1.10,2013-01-06 11:58:00,
2013-01-06 07:13:00,-999.0,-99.9,30.06,North,-999,-999.0,-999.0,-999,0.00,,,0.00,weatherlink.com 1.10,2013-01-06 12:13:00,
2013-01-06 07:28:00,-999.0,-99.9,30.06,North,-999,-999.0,-999.0,-999,0.00,,,0.00,weatherlink.com 1.10,2013-01-06 12:28:00,
2013-01-06 07:58:00,-999.0,-99.9,30.05,North,-999,-999.0,-999.0,-999,0.00,,,0.00,weatherlink.com 1.10,2013-01-06 12:58:00,
2013-01-06 08:13:00,-999.0,-99.9,30.05,North,-999,-999.0,-999.0,-999,0.00,,,0.00,weatherlink.com 1.10,2013-01-06 13:13:00,
2013-01-06 08:28:00,31.3,28.0,30.05,ESE,114,1.0,1.0,87,0.00,,,0.00,weatherlink.com 1.10,2013-01-06 13:28:00,
2013-01-06 08:43:00,31.8,29.0,30.05,ESE,117,1.0,3.0,88,0.00,,,0.00,weatherlink.com 1.10,2013-01-06 13:43:00,
2013-01-06 08:58:00,32.2,29.0,30.05,SE,139,2.0,3.0,88,0.00,,,0.00,weatherlink.com 1.10,2013-01-06 13:58:00,
2013-01-06 09:13:00,32.8,30.0,30.05,East,101,1.0,3.0,88,0.00,,,0.00,weatherlink.com 1.10,2013-01-06 14:13:00,
2013-01-06 09:28:00,33.1,30.0,30.05,ESE,117,3.0,3.0,87,0.00,,,0.00,weatherlink.com 1.10,2013-01-06 14:28:00,
2013-01-06 09:43:00,34.0,31.0,30.05,SSE,159,2.0,2.0,87,0.00,,,0.00,weatherlink.com 1.10,2013-01-06 14:43:00,
2013-01-06 09:58:00,35.6,31.0,30.04,East,98,4.0,4.0,84,0.00,,,0.00,weatherlink.com 1.10,2013-01-06 14:58:00,
2013-01-06 10:13:00,37.0,32.0,30.03,ESE,115,3.0,4.0,81,0.00,,,0.00,weatherlink.com 1.10,2013-01-06 15:13:00,
2013-01-06 10:28:00,38.3,32.0,30.03,SE,141,2.0,5.0,77,0.00,,,0.00,weatherlink.com 1.10,2013-01-06 15:28:00,
2013-01-06 10:43:00,39.5,32.0,30.02,SSE,158,5.0,6.0,74,0.00,,,0.00,weatherlink.com 1.10,2013-01-06 15:43:00,
2013-01-06 10:58:00,40.5,31.0,30.01,ESE,120,3.0,7.0,70,0.00,,,0.00,weatherlink.com 1.10,2013-01-06 15:58:00,
2013-01-06 11:13:00,41.8,31.0,30.00,SSE,163,7.0,7.0,65,0.00,,,0.00,weatherlink.com 1.10,2013-01-06 16:13:00,
2013-01-06 11:28:00,42.7,30.0,29.99,SSE,159,5.0,11.0,61,0.00,,,0.00,weatherlink.com 1.10,2013-01-06 16:28:00,
2013-01-06 11:43:00,43.3,30.0,29.98,WSW,246,4.0,9.0,59,0.00,,,0.00,weatherlink.com 1.10,2013-01-06 16:43:00,
2013-01-06 11:58:00,44.1,30.0,29.96,SSE,160,5.0,9.0,58,0.00,,,0.00,weatherlink.com 1.10,2013-01-06 16:58:00,
2013-01-06 12:13:00,44.0,29.0,29.96,SW,236,4.0,10.0,57,0.00,,,0.00,weatherlink.com 1.10,2013-01-06 17:13:00,
2013-01-06 12:29:00,44.0,29.0,29.95,SSE,151,5.0,11.0,57,0.00,,,0.00,weatherlink.com 1.10,2013-01-06 17:29:00,
2013-01-06 12:44:00,44.4,29.0,29.95,South,172,5.0,9.0,56,0.00,,,0.00,weatherlink.com 1.10,2013-01-06 17:44:00,
2013-01-06 12:59:00,45.0,30.0,29.95,SE,134,1.0,8.0,55,0.00,,,0.00,weatherlink.com 1.10,2013-01-06 17:59:00,
2013-01-06 13:14:00,44.9,29.0,29.93,WSW,239,9.0,10.0,55,0.00,,,0.00,weatherlink.com 1.10,2013-01-06 18:14:00,
2013-01-06 13:29:00,45.6,30.0,29.92,South,188,3.0,7.0,55,0.00,,,0.00,weatherlink.com 1.10,2013-01-06 18:29:00,
2013-01-06 13:44:00,45.6,29.0,29.92,SW,217,1.0,8.0,53,0.00,,,0.00,weatherlink.com 1.10,2013-01-06 18:44:00,
2013-01-06 13:59:00,46.0,29.0,29.91,SW,224,3.0,15.0,51,0.00,,,0.00,weatherlink.com 1.10,2013-01-06 18:59:00,
2013-01-06 14:14:00,45.5,29.0,29.91,WNW,287,3.0,12.0,52,0.00,,,0.00,weatherlink.com 1.10,2013-01-06 19:14:00,
2013-01-06 14:29:00,45.4,29.0,29.91,West,261,4.0,11.0,53,0.00,,,0.00,weatherlink.com 1.10,2013-01-06 19:29:00,
2013-01-06 14:44:00,45.9,29.0,29.91,SW,217,2.0,6.0,51,0.00,,,0.00,weatherlink.com 1.10,2013-01-06 19:44:00,
2013-01-06 14:59:00,45.9,28.0,29.91,SE,145,5.0,9.0,50,0.00,,,0.00,weatherlink.com 1.10,2013-01-06 19:59:00,
2013-01-06 15:14:00,45.1,28.0,29.91,SSW,195,3.0,10.0,52,0.00,,,0.00,weatherlink.com 1.10,2013-01-06 20:14:00,
2013-01-06 15:29:00,44.3,28.0,29.91,South,173,2.0,6.0,54,0.00,,,0.00,weatherlink.com 1.10,2013-01-06 20:29:00,
2013-01-06 15:44:00,43.6,28.0,29.91,South,184,2.0,8.0,55,0.00,,,0.00,weatherlink.com 1.10,2013-01-06 20:44:00,
2013-01-06 15:59:00,43.3,28.0,29.92,West,279,3.0,7.0,56,0.00,,,0.00,weatherlink.com 1.10,2013-01-06 20:59:00,
2013-01-06 16:14:00,43.1,28.0,29.92,SSE,166,0.0,8.0,56,0.00,,,0.00,weatherlink.com 1.10,2013-01-06 21:14:00,
2013-01-06 16:29:00,42.8,28.0,29.92,SSW,203,2.0,5.0,56,0.00,,,0.00,weatherlink.com 1.10,2013-01-06 21:29:00,
2013-01-06 16:44:00,42.1,28.0,29.93,SE,145,4.0,4.0,57,0.00,,,0.00,weatherlink.com 1.10,2013-01-06 21:44:00,
2013-01-06 16:59:00,41.5,28.0,29.93,South,191,1.0,4.0,58,0.00,,,0.00,weatherlink.com 1.10,2013-01-06 21:59:00,
2013-01-06 17:14:00,41.2,27.0,29.93,SW,225,0.0,5.0,58,0.00,,,0.00,weatherlink.com 1.10,2013-01-06 22:14:00,
2013-01-06 17:29:00,40.9,27.0,29.93,West,263,0.0,3.0,59,0.00,,,0.00,weatherlink.com 1.10,2013-01-06 22:29:00,
2013-01-06 17:44:00,40.6,28.0,29.94,SSE,160,0.0,4.0,60,0.00,,,0.00,weatherlink.com 1.10,2013-01-06 22:44:00,
2013-01-06 17:59:00,40.4,28.0,29.95,South,191,0.0,2.0,61,0.00,,,0.00,weatherlink.com 1.10,2013-01-06 22:59:00,
2013-01-06 18:14:00,40.3,28.0,29.95,SSE,165,0.0,2.0,61,0.00,,,0.00,weatherlink.com 1.10,2013-01-06 23:14:00,
2013-01-06 18:29:00,39.7,27.0,29.95,SSE,155,0.0,0.0,62,0.00,,,0.00,weatherlink.com 1.10,2013-01-06 23:29:00,
2013-01-06 18:44:00,39.7,28.0,29.95,SSE,155,0.0,1.0,63,0.00,,,0.00,weatherlink.com 1.10,2013-01-06 23:44:00,
2013-01-06 19:00:00,39.9,28.0,29.96,SE,146,1.0,2.0,63,0.00,,,0.00,weatherlink.com 1.10,2013-01-07 00:00:00,
2013-01-06 19:15:00,39.6,28.0,29.96,WSW,257,0.0,1.0,64,0.00,,,0.00,weatherlink.com 1.10,2013-01-07 00:15:00,
2013-01-06 19:30:00,39.7,28.0,29.96,West,265,1.0,4.0,64,0.00,,,0.00,weatherlink.com 1.10,2013-01-07 00:30:00,
2013-01-06 19:45:00,40.1,28.0,29.96,WSW,243,0.0,1.0,63,0.00,,,0.00,weatherlink.com 1.10,2013-01-07 00:45:00,
2013-01-06 20:00:00,40.4,29.0,29.97,SW,226,1.0,3.0,63,0.00,,,0.00,weatherlink.com 1.10,2013-01-07 01:00:00,
2013-01-06 20:15:00,40.7,28.0,29.96,West,267,2.0,5.0,62,0.00,,,0.00,weatherlink.com 1.10,2013-01-07 01:15:00,
2013-01-06 20:30:00,40.4,29.0,29.96,West,275,1.0,4.0,63,0.00,,,0.00,weatherlink.com 1.10,2013-01-07 01:30:00,
2013-01-06 20:45:00,40.2,28.0,29.96,SSW,197,1.0,2.0,63,0.00,,,0.00,weatherlink.com 1.10,2013-01-07 01:45:00,
2013-01-06 21:00:00,40.3,28.0,29.96,WSW,238,0.0,3.0,63,0.00,,,0.00,weatherlink.com 1.10,2013-01-07 02:00:00,
2013-01-06 21:15:00,39.9,29.0,29.96,SW,233,0.0,2.0,64,0.00,,,0.00,weatherlink.com 1.10,2013-01-07 02:15:00,
2013-01-06 21:30:00,39.2,28.0,29.97,SW,233,0.0,0.0,65,0.00,,,0.00,weatherlink.com 1.10,2013-01-07 02:30:00,
2013-01-06 21:45:00,38.9,28.0,29.97,WSW,253,0.0,1.0,66,0.00,,,0.00,weatherlink.com 1.10,2013-01-07 02:45:00,
2013-01-06 22:00:00,37.7,28.0,29.97,WSW,250,0.0,1.0,68,0.00,,,0.00,weatherlink.com 1.10,2013-01-07 03:00:00,
2013-01-06 22:15:00,36.8,28.0,29.98,WSW,250,0.0,0.0,71,0.00,,,0.00,weatherlink.com 1.10,2013-01-07 03:15:00,
2013-01-06 22:30:00,35.6,28.0,29.98,WSW,250,0.0,0.0,73,0.00,,,0.00,weatherlink.com 1.10,2013-01-07 03:30:00,
2013-01-06 22:45:00,35.4,28.0,29.98,WSW,243,0.0,0.0,74,0.00,,,0.00,weatherlink.com 1.10,2013-01-07 03:45:00,
2013-01-06 23:00:00,33.8,27.0,29.98,WSW,246,0.0,0.0,77,0.00,,,0.00,weatherlink.com 1.10,2013-01-07 04:00:00,
2013-01-06 23:15:00,32.9,27.0,29.98,WSW,246,0.0,0.0,78,0.00,,,0.00,weatherlink.com 1.10,2013-01-07 04:15:00,
2013-01-06 23:30:00,30.8,27.0,29.99,West,259,0.0,0.0,84,0.00,,,0.00,weatherlink.com 1.10,2013-01-07 04:30:00,
2013-01-06 23:45:00,31.3,27.0,30.00,West,259,0.0,0.0,83,0.00,,,0.00,weatherlink.com 1.10,2013-01-07 04:45:00,